sensor_id;sensor_type;location;lat;lon;timestamp;pressure;altitude;pressure_sealevel;temperature;humidity
19150;BME280;9707;49.158;8.632;2023-05-17T00:00:36;100893.28;;;22.57;34.01
19150;BME280;9707;49.158;8.632;2023-05-17T00:03:02;100882.44;;;22.57;34.04
19150;BME280;9707;49.158;8.632;2023-05-17T00:05:27;100894.28;;;22.56;33.88
19150;BME280;9707;49.158;8.632;2023-05-17T00:07:52;100899.84;;;22.54;33.96
19150;BME280;9707;49.158;8.632;2023-05-17T00:10:17;100908.09;;;22.53;34.17
19150;BME280;9707;49.158;8.632;2023-05-17T00:12:43;100908.09;;;22.53;34.27
19150;BME280;9707;49.158;8.632;2023-05-17T00:15:08;100906.38;;;22.52;33.94
19150;BME280;9707;49.158;8.632;2023-05-17T00:17:34;100906.38;;;22.52;33.88
19150;BME280;9707;49.158;8.632;2023-05-17T00:20:01;100903.66;;;22.52;33.82
19150;BME280;9707;49.158;8.632;2023-05-17T00:22:26;100903.78;;;22.50;34.33
19150;BME280;9707;49.158;8.632;2023-05-17T00:24:51;100904.78;;;22.49;34.33
19150;BME280;9707;49.158;8.632;2023-05-17T00:27:17;100908.59;;;22.47;34.10
19150;BME280;9707;49.158;8.632;2023-05-17T00:29:42;100910.31;;;22.48;34.18
19150;BME280;9707;49.158;8.632;2023-05-17T00:32:07;100908.59;;;22.47;34.11
19150;BME280;9707;49.158;8.632;2023-05-17T00:34:32;100910.56;;;22.45;34.39
19150;BME280;9707;49.158;8.632;2023-05-17T00:36:58;100907.88;;;22.45;34.67
19150;BME280;9707;49.158;8.632;2023-05-17T00:39:23;100911.53;;;22.44;34.63
19150;BME280;9707;49.158;8.632;2023-05-17T00:41:48;100908.06;;;22.42;34.58
19150;BME280;9707;49.158;8.632;2023-05-17T00:44:14;100916.19;;;22.42;34.64
19150;BME280;9707;49.158;8.632;2023-05-17T00:46:39;100918.06;;;22.41;34.41
19150;BME280;9707;49.158;8.632;2023-05-17T00:49:04;100919.91;;;22.41;34.64
19150;BME280;9707;49.158;8.632;2023-05-17T00:51:30;100918.19;;;22.40;34.64
19150;BME280;9707;49.158;8.632;2023-05-17T00:53:55;100915.59;;;22.38;34.51
19150;BME280;9707;49.158;8.632;2023-05-17T00:56:22;100925.56;;;22.38;34.26
19150;BME280;9707;49.158;8.632;2023-05-17T00:58:47;100924.72;;;22.37;34.54
19150;BME280;9707;49.158;8.632;2023-05-17T01:01:13;100923.84;;;22.37;34.64
19150;BME280;9707;49.158;8.632;2023-05-17T01:03:38;100922.13;;;22.36;34.86
19150;BME280;9707;49.158;8.632;2023-05-17T01:06:04;100918.53;;;22.35;34.58
19150;BME280;9707;49.158;8.632;2023-05-17T01:08:30;100919.41;;;22.36;34.57
19150;BME280;9707;49.158;8.632;2023-05-17T01:16:21;100929.75;;;22.31;34.62
19150;BME280;9707;49.158;8.632;2023-05-17T01:19:01;100934.31;;;22.30;34.60
19150;BME280;9707;49.158;8.632;2023-05-17T01:21:47;100928.03;;;22.30;34.86
19150;BME280;9707;49.158;8.632;2023-05-17T01:24:35;100930.00;;;22.28;34.67
19150;BME280;9707;49.158;8.632;2023-05-17T01:27:04;100928.28;;;22.27;34.92
19150;BME280;9707;49.158;8.632;2023-05-17T01:29:32;100933.69;;;22.27;34.78
19150;BME280;9707;49.158;8.632;2023-05-17T01:32:01;100934.56;;;22.27;34.46
19150;BME280;9707;49.158;8.632;2023-05-17T01:34:28;100938.28;;;22.26;34.74
19150;BME280;9707;49.158;8.632;2023-05-17T01:36:53;100942.81;;;22.26;34.84
19150;BME280;9707;49.158;8.632;2023-05-17T01:39:19;100941.94;;;22.25;34.78
19150;BME280;9707;49.158;8.632;2023-05-17T01:42:21;100946.66;;;22.23;34.30
19150;BME280;9707;49.158;8.632;2023-05-17T01:44:59;100945.78;;;22.23;34.92
19150;BME280;9707;49.158;8.632;2023-05-17T01:47:38;100963.91;;;22.22;34.65
19150;BME280;9707;49.158;8.632;2023-05-17T01:50:09;100956.78;;;22.21;34.77
19150;BME280;9707;49.158;8.632;2023-05-17T01:52:41;100961.31;;;22.21;34.79
19150;BME280;9707;49.158;8.632;2023-05-17T01:58:00;100965.03;;;22.20;35.12
19150;BME280;9707;49.158;8.632;2023-05-17T02:00:28;100965.25;;;22.17;34.96
19150;BME280;9707;49.158;8.632;2023-05-17T02:02:53;100972.41;;;22.18;35.11
19150;BME280;9707;49.158;8.632;2023-05-17T02:05:19;100973.38;;;22.17;34.93
19150;BME280;9707;49.158;8.632;2023-05-17T02:07:44;100976.09;;;22.17;34.93
19150;BME280;9707;49.158;8.632;2023-05-17T02:10:10;100978.94;;;22.15;34.94
19150;BME280;9707;49.158;8.632;2023-05-17T02:12:35;100968.94;;;22.16;34.92
19150;BME280;9707;49.158;8.632;2023-05-17T02:15:00;100972.66;;;22.15;34.94
19150;BME280;9707;49.158;8.632;2023-05-17T02:17:25;100972.66;;;22.15;35.11
19150;BME280;9707;49.158;8.632;2023-05-17T02:19:51;100979.06;;;22.14;35.00
19150;BME280;9707;49.158;8.632;2023-05-17T02:22:16;100971.88;;;22.13;35.00
19150;BME280;9707;49.158;8.632;2023-05-17T02:24:41;100981.03;;;22.12;35.00
19150;BME280;9707;49.158;8.632;2023-05-17T02:27:06;100979.28;;;22.11;35.16
19150;BME280;9707;49.158;8.632;2023-05-17T02:29:32;100982.00;;;22.11;35.09
19150;BME280;9707;49.158;8.632;2023-05-17T02:31:57;100983.00;;;22.10;34.93
19150;BME280;9707;49.158;8.632;2023-05-17T02:34:23;100983.00;;;22.10;35.01
19150;BME280;9707;49.158;8.632;2023-05-17T02:36:48;100984.00;;;22.09;34.62
19150;BME280;9707;49.158;8.632;2023-05-17T02:39:13;100991.34;;;22.07;34.45
19150;BME280;9707;49.158;8.632;2023-05-17T02:41:38;100983.22;;;22.07;34.85
19150;BME280;9707;49.158;8.632;2023-05-17T02:44:04;100985.19;;;22.05;34.46
19150;BME280;9707;49.158;8.632;2023-05-17T02:46:29;100982.59;;;22.03;34.68
19150;BME280;9707;49.158;8.632;2023-05-17T02:48:55;100984.44;;;22.03;34.58
19150;BME280;9707;49.158;8.632;2023-05-17T02:51:20;100979.00;;;22.03;35.17
19150;BME280;9707;49.158;8.632;2023-05-17T02:53:47;100981.72;;;22.03;35.33
19150;BME280;9707;49.158;8.632;2023-05-17T02:56:13;100982.72;;;22.02;35.51
19150;BME280;9707;49.158;8.632;2023-05-17T02:58:38;100988.13;;;22.02;35.38
19150;BME280;9707;49.158;8.632;2023-05-17T03:01:03;100980.09;;;22.00;35.46
19150;BME280;9707;49.158;8.632;2023-05-17T03:03:29;100985.41;;;22.02;35.36
19150;BME280;9707;49.158;8.632;2023-05-17T03:05:59;100990.00;;;22.01;35.08
19150;BME280;9707;49.158;8.632;2023-05-17T03:08:24;100984.56;;;22.01;35.21
19150;BME280;9707;49.158;8.632;2023-05-17T03:10:50;100991.84;;;22.01;35.22
19150;BME280;9707;49.158;8.632;2023-05-17T03:13:16;100997.25;;;22.01;35.52
19150;BME280;9707;49.158;8.632;2023-05-17T03:15:41;100992.81;;;22.00;35.48
19150;BME280;9707;49.158;8.632;2023-05-17T03:18:06;100993.81;;;21.99;35.43
19150;BME280;9707;49.158;8.632;2023-05-17T03:20:32;100993.81;;;21.99;35.46
19150;BME280;9707;49.158;8.632;2023-05-17T03:22:57;100996.53;;;21.99;35.54
19150;BME280;9707;49.158;8.632;2023-05-17T03:25:22;100996.53;;;21.99;35.41
19150;BME280;9707;49.158;8.632;2023-05-17T03:27:47;100988.38;;;21.99;35.37
19150;BME280;9707;49.158;8.632;2023-05-17T03:30:13;100992.94;;;21.98;35.33
19150;BME280;9707;49.158;8.632;2023-05-17T03:32:41;100993.03;;;21.97;35.31
19150;BME280;9707;49.158;8.632;2023-05-17T03:35:07;100990.34;;;21.97;35.55
19150;BME280;9707;49.158;8.632;2023-05-17T03:37:32;101000.34;;;21.96;35.50
19150;BME280;9707;49.158;8.632;2023-05-17T03:39:58;101013.03;;;21.96;35.66
19150;BME280;9707;49.158;8.632;2023-05-17T03:42:23;101011.31;;;21.95;35.48
19150;BME280;9707;49.158;8.632;2023-05-17T03:44:49;101010.31;;;21.96;35.50
19150;BME280;9707;49.158;8.632;2023-05-17T03:47:14;101011.31;;;21.95;35.69
19150;BME280;9707;49.158;8.632;2023-05-17T03:49:39;101009.56;;;21.94;35.68
19150;BME280;9707;49.158;8.632;2023-05-17T03:52:05;101015.09;;;21.92;35.74
19150;BME280;9707;49.158;8.632;2023-05-17T03:54:31;101014.22;;;21.92;36.07
19150;BME280;9707;49.158;8.632;2023-05-17T03:56:56;101021.41;;;21.93;35.89
19150;BME280;9707;49.158;8.632;2023-05-17T03:59:21;101021.41;;;21.93;35.85
19150;BME280;9707;49.158;8.632;2023-05-17T04:01:46;101022.38;;;21.92;36.08
19150;BME280;9707;49.158;8.632;2023-05-17T04:04:12;101024.22;;;21.91;35.67
19150;BME280;9707;49.158;8.632;2023-05-17T04:06:37;101025.22;;;21.90;36.06
19150;BME280;9707;49.158;8.632;2023-05-17T04:09:03;101028.78;;;21.91;35.90
19150;BME280;9707;49.158;8.632;2023-05-17T04:11:28;101032.47;;;21.90;36.16
19150;BME280;9707;49.158;8.632;2023-05-17T04:13:54;101038.78;;;21.90;36.02
19150;BME280;9707;49.158;8.632;2023-05-17T04:16:19;101041.50;;;21.90;35.92
19150;BME280;9707;49.158;8.632;2023-05-17T04:18:45;101045.16;;;21.89;35.91
19150;BME280;9707;49.158;8.632;2023-05-17T04:21:11;101054.19;;;21.90;35.80
19150;BME280;9707;49.158;8.632;2023-05-17T04:23:36;101053.44;;;21.88;36.03
19150;BME280;9707;49.158;8.632;2023-05-17T04:26:02;101051.56;;;21.88;35.78
19150;BME280;9707;49.158;8.632;2023-05-17T04:28:29;101069.72;;;21.88;35.83
19150;BME280;9707;49.158;8.632;2023-05-17T04:30:54;101059.81;;;21.87;35.69
19150;BME280;9707;49.158;8.632;2023-05-17T04:33:20;101059.81;;;21.87;35.82
19150;BME280;9707;49.158;8.632;2023-05-17T04:35:45;101064.41;;;21.86;35.93
19150;BME280;9707;49.158;8.632;2023-05-17T04:38:10;101066.22;;;21.86;35.73
19150;BME280;9707;49.158;8.632;2023-05-17T04:40:36;101066.22;;;21.86;35.65
19150;BME280;9707;49.158;8.632;2023-05-17T04:43:01;101068.09;;;21.85;36.13
19150;BME280;9707;49.158;8.632;2023-05-17T04:45:27;101068.94;;;21.86;35.91
19150;BME280;9707;49.158;8.632;2023-05-17T04:47:52;101072.66;;;21.85;36.22
19150;BME280;9707;49.158;8.632;2023-05-17T04:50:18;101079.78;;;21.86;35.88
19150;BME280;9707;49.158;8.632;2023-05-17T04:52:45;101077.97;;;21.86;35.92
19150;BME280;9707;49.158;8.632;2023-05-17T04:55:10;101078.06;;;21.85;36.31
19150;BME280;9707;49.158;8.632;2023-05-17T04:57:36;101081.78;;;21.84;36.04
19150;BME280;9707;49.158;8.632;2023-05-17T05:00:02;101085.22;;;21.86;36.15
19150;BME280;9707;49.158;8.632;2023-05-17T05:02:31;101088.03;;;21.84;35.76
19150;BME280;9707;49.158;8.632;2023-05-17T05:04:56;101091.75;;;21.83;36.39
19150;BME280;9707;49.158;8.632;2023-05-17T05:07:21;101088.03;;;21.84;36.13
19150;BME280;9707;49.158;8.632;2023-05-17T05:09:47;101092.63;;;21.84;35.75
19150;BME280;9707;49.158;8.632;2023-05-17T05:12:12;101093.59;;;21.83;35.43
19150;BME280;9707;49.158;8.632;2023-05-17T05:14:37;101095.44;;;21.82;35.74
19150;BME280;9707;49.158;8.632;2023-05-17T05:17:03;101097.28;;;21.82;35.98
19150;BME280;9707;49.158;8.632;2023-05-17T05:19:28;101099.97;;;21.82;35.71
19150;BME280;9707;49.158;8.632;2023-05-17T05:21:56;101098.25;;;21.81;35.61
19150;BME280;9707;49.158;8.632;2023-05-17T05:24:21;101103.69;;;21.81;35.46
19150;BME280;9707;49.158;8.632;2023-05-17T05:26:47;101112.69;;;21.81;35.24
19150;BME280;9707;49.158;8.632;2023-05-17T05:29:12;101107.38;;;21.80;35.59
19150;BME280;9707;49.158;8.632;2023-05-17T05:31:37;101116.41;;;21.80;35.22
19150;BME280;9707;49.158;8.632;2023-05-17T05:34:02;101112.81;;;21.80;35.82
19150;BME280;9707;49.158;8.632;2023-05-17T05:36:28;101112.06;;;21.78;33.49
19150;BME280;9707;49.158;8.632;2023-05-17T05:38:53;101110.53;;;21.74;33.08
19150;BME280;9707;49.158;8.632;2023-05-17T05:41:18;101122.59;;;21.70;32.88
19150;BME280;9707;49.158;8.632;2023-05-17T05:43:44;101122.03;;;21.65;32.70
19150;BME280;9707;49.158;8.632;2023-05-17T05:46:09;101116.94;;;21.60;32.92
19150;BME280;9707;49.158;8.632;2023-05-17T05:48:34;101116.28;;;21.57;33.09
19150;BME280;9707;49.158;8.632;2023-05-17T05:51:03;101124.66;;;21.54;33.00
19150;BME280;9707;49.158;8.632;2023-05-17T05:53:29;101124.97;;;21.49;32.90
19150;BME280;9707;49.158;8.632;2023-05-17T05:55:54;101136.06;;;21.46;32.84
19150;BME280;9707;49.158;8.632;2023-05-17T05:58:19;101132.69;;;21.43;33.08
19150;BME280;9707;49.158;8.632;2023-05-17T06:00:45;101131.06;;;21.40;33.05
19150;BME280;9707;49.158;8.632;2023-05-17T06:03:10;101133.13;;;21.37;32.89
19150;BME280;9707;49.158;8.632;2023-05-17T06:05:35;101148.53;;;21.36;33.37
19150;BME280;9707;49.158;8.632;2023-05-17T06:08:01;101146.03;;;21.33;33.28
19150;BME280;9707;49.158;8.632;2023-05-17T06:10:26;101156.88;;;21.33;33.24
19150;BME280;9707;49.158;8.632;2023-05-17T06:12:51;101156.88;;;21.33;32.96
19150;BME280;9707;49.158;8.632;2023-05-17T06:15:17;101161.44;;;21.33;32.40
19150;BME280;9707;49.158;8.632;2023-05-17T06:17:42;101166.19;;;21.29;32.54
19150;BME280;9707;49.158;8.632;2023-05-17T06:20:08;101170.09;;;21.25;32.41
19150;BME280;9707;49.158;8.632;2023-05-17T06:22:33;101169.44;;;21.22;32.47
19150;BME280;9707;49.158;8.632;2023-05-17T06:24:58;101169.56;;;21.20;32.41
19150;BME280;9707;49.158;8.632;2023-05-17T06:27:23;101169.66;;;21.19;32.89
19150;BME280;9707;49.158;8.632;2023-05-17T06:29:49;101169.66;;;21.19;32.86
19150;BME280;9707;49.158;8.632;2023-05-17T06:32:15;101160.78;;;21.17;32.71
19150;BME280;9707;49.158;8.632;2023-05-17T06:34:40;101165.22;;;21.18;33.41
19150;BME280;9707;49.158;8.632;2023-05-17T06:37:05;101175.09;;;21.19;33.23
19150;BME280;9707;49.158;8.632;2023-05-17T06:39:30;101174.00;;;21.21;33.26
19150;BME280;9707;49.158;8.632;2023-05-17T06:41:56;101172.13;;;21.22;33.26
19150;BME280;9707;49.158;8.632;2023-05-17T06:44:21;101173.03;;;21.22;33.39
19150;BME280;9707;49.158;8.632;2023-05-17T06:46:46;101175.63;;;21.24;33.33
19150;BME280;9707;49.158;8.632;2023-05-17T06:49:11;101180.06;;;21.25;33.57
19150;BME280;9707;49.158;8.632;2023-05-17T06:51:37;101179.97;;;21.26;33.89
19150;BME280;9707;49.158;8.632;2023-05-17T06:54:02;101175.28;;;21.28;33.64
19150;BME280;9707;49.158;8.632;2023-05-17T06:56:27;101175.19;;;21.30;34.09
19150;BME280;9707;49.158;8.632;2023-05-17T06:58:52;101179.63;;;21.31;33.53
19150;BME280;9707;49.158;8.632;2023-05-17T07:01:18;101183.13;;;21.33;33.67
19150;BME280;9707;49.158;8.632;2023-05-17T07:03:43;101177.56;;;21.34;33.59
19150;BME280;9707;49.158;8.632;2023-05-17T07:06:08;101176.63;;;21.35;34.17
19150;BME280;9707;49.158;8.632;2023-05-17T07:08:34;101180.94;;;21.38;33.54
19150;BME280;9707;49.158;8.632;2023-05-17T07:10:59;101182.69;;;21.39;33.52
19150;BME280;9707;49.158;8.632;2023-05-17T07:13:25;101179.88;;;21.40;33.67
19150;BME280;9707;49.158;8.632;2023-05-17T07:15:50;101189.63;;;21.43;33.51
19150;BME280;9707;49.158;8.632;2023-05-17T07:18:15;101188.63;;;21.44;32.79
19150;BME280;9707;49.158;8.632;2023-05-17T07:20:41;101189.38;;;21.46;33.29
19150;BME280;9707;49.158;8.632;2023-05-17T07:23:06;101184.84;;;21.46;32.80
19150;BME280;9707;49.158;8.632;2023-05-17T07:25:31;101190.28;;;21.46;31.75
19150;BME280;9707;49.158;8.632;2023-05-17T07:27:57;101200.22;;;21.46;31.85
19150;BME280;9707;49.158;8.632;2023-05-17T07:30:22;101195.78;;;21.45;32.15
19150;BME280;9707;49.158;8.632;2023-05-17T07:32:47;101193.06;;;21.45;31.77
19150;BME280;9707;49.158;8.632;2023-05-17T07:35:12;101195.78;;;21.45;31.97
19150;BME280;9707;49.158;8.632;2023-05-17T07:37:38;101189.38;;;21.46;31.99
19150;BME280;9707;49.158;8.632;2023-05-17T07:40:03;101188.53;;;21.45;32.18
19150;BME280;9707;49.158;8.632;2023-05-17T07:42:29;101173.91;;;21.48;32.74
19150;BME280;9707;49.158;8.632;2023-05-17T07:44:55;101184.41;;;21.52;32.62
19150;BME280;9707;49.158;8.632;2023-05-17T07:47:20;101192.44;;;21.54;32.15
19150;BME280;9707;49.158;8.632;2023-05-17T07:49:45;101195.78;;;21.57;32.30
19150;BME280;9707;49.158;8.632;2023-05-17T07:52:11;101192.00;;;21.60;32.96
19150;BME280;9707;49.158;8.632;2023-05-17T07:54:37;101179.84;;;21.65;32.43
19150;BME280;9707;49.158;8.632;2023-05-17T07:57:03;101189.63;;;21.68;32.30
19150;BME280;9707;49.158;8.632;2023-05-17T07:59:28;101190.28;;;21.71;31.77
19150;BME280;9707;49.158;8.632;2023-05-17T08:01:53;101180.06;;;21.75;32.34
19150;BME280;9707;49.158;8.632;2023-05-17T08:04:19;101184.50;;;21.76;31.31
19150;BME280;9707;49.158;8.632;2023-05-17T08:06:44;101184.41;;;21.77;31.74
19150;BME280;9707;49.158;8.632;2023-05-17T08:09:12;101176.16;;;21.79;32.61
19150;BME280;9707;49.158;8.632;2023-05-17T08:11:37;101186.78;;;21.82;31.45
19150;BME280;9707;49.158;8.632;2023-05-17T08:14:09;101180.41;;;21.83;31.10
19150;BME280;9707;49.158;8.632;2023-05-17T08:16:35;101175.72;;;21.85;30.99
19150;BME280;9707;49.158;8.632;2023-05-17T08:19:00;101176.59;;;21.85;30.99
19150;BME280;9707;49.158;8.632;2023-05-17T08:21:26;101178.31;;;21.86;30.96
19150;BME280;9707;49.158;8.632;2023-05-17T08:23:51;101178.22;;;21.88;30.55
19150;BME280;9707;49.158;8.632;2023-05-17T08:26:16;101175.72;;;21.85;30.71
19150;BME280;9707;49.158;8.632;2023-05-17T08:28:42;101174.84;;;21.84;31.04
19150;BME280;9707;49.158;8.632;2023-05-17T08:31:08;101175.72;;;21.85;30.88
19150;BME280;9707;49.158;8.632;2023-05-17T08:33:33;101164.88;;;21.85;30.85
19150;BME280;9707;49.158;8.632;2023-05-17T08:35:58;101173.13;;;21.83;30.92
19150;BME280;9707;49.158;8.632;2023-05-17T08:38:25;101172.25;;;21.83;31.29
19150;BME280;9707;49.158;8.632;2023-05-17T08:40:54;101179.41;;;21.84;30.59
19150;BME280;9707;49.158;8.632;2023-05-17T08:43:21;101173.22;;;21.82;30.48
19150;BME280;9707;49.158;8.632;2023-05-17T08:45:48;101175.94;;;21.82;30.40
19150;BME280;9707;49.158;8.632;2023-05-17T08:48:14;101175.94;;;21.82;30.32
19150;BME280;9707;49.158;8.632;2023-05-17T08:50:41;101173.34;;;21.80;30.26
19150;BME280;9707;49.158;8.632;2023-05-17T08:53:09;101172.47;;;21.80;30.07
19150;BME280;9707;49.158;8.632;2023-05-17T08:55:35;101175.09;;;21.81;30.11
19150;BME280;9707;49.158;8.632;2023-05-17T08:58:02;101174.19;;;21.81;30.17
19150;BME280;9707;49.158;8.632;2023-05-17T09:00:29;101171.50;;;21.81;29.53
19150;BME280;9707;49.158;8.632;2023-05-17T09:02:57;101173.47;;;21.79;29.53
19150;BME280;9707;49.158;8.632;2023-05-17T09:05:23;101161.84;;;21.77;29.79
19150;BME280;9707;49.158;8.632;2023-05-17T09:07:49;101170.84;;;21.77;29.77
19150;BME280;9707;49.158;8.632;2023-05-17T09:10:15;101169.97;;;21.77;29.92
19150;BME280;9707;49.158;8.632;2023-05-17T09:12:40;101166.31;;;21.78;30.02
19150;BME280;9707;49.158;8.632;2023-05-17T09:15:17;101170.75;;;21.79;29.58
19150;BME280;9707;49.158;8.632;2023-05-17T09:17:50;101172.47;;;21.80;29.54
19150;BME280;9707;49.158;8.632;2023-05-17T09:22:49;101170.50;;;21.82;29.93
19150;BME280;9707;49.158;8.632;2023-05-17T09:25:18;101178.53;;;21.83;29.46
19150;BME280;9707;49.158;8.632;2023-05-17T09:27:44;101177.44;;;21.86;29.57
19150;BME280;9707;49.158;8.632;2023-05-17T09:30:09;101185.47;;;21.87;29.40
19150;BME280;9707;49.158;8.632;2023-05-17T09:32:42;101186.34;;;21.88;29.60
19150;BME280;9707;49.158;8.632;2023-05-17T09:35:08;101182.66;;;21.89;29.96
19150;BME280;9707;49.158;8.632;2023-05-17T09:37:36;101184.38;;;21.90;29.68
19150;BME280;9707;49.158;8.632;2023-05-17T09:40:02;101186.13;;;21.91;29.37
19150;BME280;9707;49.158;8.632;2023-05-17T09:42:28;101184.19;;;21.93;29.54
19150;BME280;9707;49.158;8.632;2023-05-17T09:44:54;101186.88;;;21.93;29.30
19150;BME280;9707;49.158;8.632;2023-05-17T09:47:24;101177.88;;;21.92;29.65
19150;BME280;9707;49.158;8.632;2023-05-17T09:49:50;101178.75;;;21.93;29.09
19150;BME280;9707;49.158;8.632;2023-05-17T09:52:17;101177.78;;;21.94;29.16
19150;BME280;9707;49.158;8.632;2023-05-17T09:54:50;101178.75;;;21.93;29.66
19150;BME280;9707;49.158;8.632;2023-05-17T09:57:16;101181.97;;;21.98;30.19
19150;BME280;9707;49.158;8.632;2023-05-17T09:59:42;101180.75;;;22.02;30.27
19150;BME280;9707;49.158;8.632;2023-05-17T10:02:09;101191.31;;;22.06;29.86
19150;BME280;9707;49.158;8.632;2023-05-17T10:04:42;101193.66;;;22.11;29.51
19150;BME280;9707;49.158;8.632;2023-05-17T10:07:08;101191.69;;;22.13;29.60
19150;BME280;9707;49.158;8.632;2023-05-17T10:09:35;101193.19;;;22.17;28.94
19150;BME280;9707;49.158;8.632;2023-05-17T10:12:01;101191.25;;;22.19;28.65
19150;BME280;9707;49.158;8.632;2023-05-17T10:14:29;101188.41;;;22.20;28.43
19150;BME280;9707;49.158;8.632;2023-05-17T10:16:58;101182.13;;;22.20;29.17
19150;BME280;9707;49.158;8.632;2023-05-17T10:19:25;101183.88;;;22.21;29.78
19150;BME280;9707;49.158;8.632;2023-05-17T10:21:51;101175.38;;;22.25;29.71
19150;BME280;9707;49.158;8.632;2023-05-17T10:24:18;101175.16;;;22.28;29.69
19150;BME280;9707;49.158;8.632;2023-05-17T10:26:44;101175.78;;;22.32;30.63
19150;BME280;9707;49.158;8.632;2023-05-17T10:29:10;101180.88;;;22.36;29.93
19150;BME280;9707;49.158;8.632;2023-05-17T10:31:35;101178.81;;;22.40;29.40
19150;BME280;9707;49.158;8.632;2023-05-17T10:34:03;101183.97;;;22.43;29.48
19150;BME280;9707;49.158;8.632;2023-05-17T10:36:29;101181.19;;;22.44;29.25
19150;BME280;9707;49.158;8.632;2023-05-17T10:38:55;101189.22;;;22.46;29.31
19150;BME280;9707;49.158;8.632;2023-05-17T10:41:22;101193.56;;;22.48;29.01
19150;BME280;9707;49.158;8.632;2023-05-17T10:43:49;101197.16;;;22.49;29.04
19150;BME280;9707;49.158;8.632;2023-05-17T10:46:15;101192.47;;;22.51;29.50
19150;BME280;9707;49.158;8.632;2023-05-17T10:48:42;101198.63;;;22.53;28.12
19150;BME280;9707;49.158;8.632;2023-05-17T10:51:09;101195.06;;;22.52;27.90
19150;BME280;9707;49.158;8.632;2023-05-17T10:59:20;101197.16;;;22.49;28.34
19150;BME280;9707;49.158;8.632;2023-05-17T11:04:32;101201.59;;;22.50;27.79
19150;BME280;9707;49.158;8.632;2023-05-17T11:10:09;101195.28;;;22.49;26.67
19150;BME280;9707;49.158;8.632;2023-05-17T11:12:41;101194.44;;;22.49;27.48
19150;BME280;9707;49.158;8.632;2023-05-17T11:15:14;101193.44;;;22.50;27.82
19150;BME280;9707;49.158;8.632;2023-05-17T11:22:42;101187.34;;;22.59;27.31
19150;BME280;9707;49.158;8.632;2023-05-17T11:25:10;101193.50;;;22.61;27.42
19150;BME280;9707;49.158;8.632;2023-05-17T11:27:38;101192.50;;;22.62;27.30
19150;BME280;9707;49.158;8.632;2023-05-17T11:32:51;101195.00;;;22.65;26.95
19150;BME280;9707;49.158;8.632;2023-05-17T11:35:21;101187.59;;;22.67;27.80
19150;BME280;9707;49.158;8.632;2023-05-17T11:37:50;101191.94;;;22.69;28.12
19150;BME280;9707;49.158;8.632;2023-05-17T11:40:23;101184.31;;;22.74;27.72
19150;BME280;9707;49.158;8.632;2023-05-17T11:42:49;101187.75;;;22.76;27.12
19150;BME280;9707;49.158;8.632;2023-05-17T11:45:44;101185.03;;;22.76;27.13
19150;BME280;9707;49.158;8.632;2023-05-17T11:48:11;101187.66;;;22.78;26.52
19150;BME280;9707;49.158;8.632;2023-05-17T11:50:37;101191.25;;;22.78;25.91
19150;BME280;9707;49.158;8.632;2023-05-17T11:53:05;101181.47;;;22.76;26.29
19150;BME280;9707;49.158;8.632;2023-05-17T11:55:32;101173.22;;;22.77;26.10
19150;BME280;9707;49.158;8.632;2023-05-17T11:57:57;101182.09;;;22.79;26.68
19150;BME280;9707;49.158;8.632;2023-05-17T12:00:25;101179.28;;;22.81;26.75
19150;BME280;9707;49.158;8.632;2023-05-17T12:02:51;101179.03;;;22.84;25.96
19150;BME280;9707;49.158;8.632;2023-05-17T12:05:19;101177.28;;;22.83;25.89
19150;BME280;9707;49.158;8.632;2023-05-17T12:07:46;101173.72;;;22.82;26.34
19150;BME280;9707;49.158;8.632;2023-05-17T12:10:12;101172.75;;;22.83;26.27
19150;BME280;9707;49.158;8.632;2023-05-17T12:12:39;101175.34;;;22.85;26.48
19150;BME280;9707;49.158;8.632;2023-05-17T12:15:06;101186.84;;;22.88;25.84
19150;BME280;9707;49.158;8.632;2023-05-17T12:17:36;101176.81;;;22.89;25.85
19150;BME280;9707;49.158;8.632;2023-05-17T12:20:07;101176.59;;;22.92;26.47
19150;BME280;9707;49.158;8.632;2023-05-17T12:22:33;101170.06;;;22.94;26.74
19150;BME280;9707;49.158;8.632;2023-05-17T12:24:58;101167.97;;;22.98;25.81
19150;BME280;9707;49.158;8.632;2023-05-17T12:27:24;101170.66;;;22.98;25.74
19150;BME280;9707;49.158;8.632;2023-05-17T12:29:50;101175.25;;;22.97;25.73
19150;BME280;9707;49.158;8.632;2023-05-17T12:32:15;101171.66;;;22.97;25.85
19150;BME280;9707;49.158;8.632;2023-05-17T12:34:40;101169.56;;;23.00;26.14
19150;BME280;9707;49.158;8.632;2023-05-17T12:37:09;101161.19;;;23.03;26.22
19150;BME280;9707;49.158;8.632;2023-05-17T12:39:37;101165.53;;;23.06;26.52
19150;BME280;9707;49.158;8.632;2023-05-17T12:42:03;101167.97;;;23.09;26.09
19150;BME280;9707;49.158;8.632;2023-05-17T12:44:28;101161.59;;;23.10;26.17
19150;BME280;9707;49.158;8.632;2023-05-17T12:46:54;101160.59;;;23.11;26.29
19150;BME280;9707;49.158;8.632;2023-05-17T12:49:20;101165.66;;;23.15;26.71
19150;BME280;9707;49.158;8.632;2023-05-17T12:51:46;101154.66;;;23.17;26.59
19150;BME280;9707;49.158;8.632;2023-05-17T12:54:16;101160.88;;;23.19;26.06
19150;BME280;9707;49.158;8.632;2023-05-17T12:56:48;101163.59;;;23.19;26.34
19150;BME280;9707;49.158;8.632;2023-05-17T12:59:17;101157.94;;;23.22;26.13
19150;BME280;9707;49.158;8.632;2023-05-17T13:01:52;101161.38;;;23.24;26.22
19150;BME280;9707;49.158;8.632;2023-05-17T13:04:20;101148.53;;;23.26;26.52
19150;BME280;9707;49.158;8.632;2023-05-17T13:09:10;101144.59;;;23.30;26.16
19150;BME280;9707;49.158;8.632;2023-05-17T13:11:37;101140.78;;;23.32;26.32
19150;BME280;9707;49.158;8.632;2023-05-17T13:14:08;101138.69;;;23.36;26.77
19150;BME280;9707;49.158;8.632;2023-05-17T13:16:38;101135.69;;;23.39;26.81
19150;BME280;9707;49.158;8.632;2023-05-17T13:19:12;101129.28;;;23.40;26.15
19150;BME280;9707;49.158;8.632;2023-05-17T13:21:38;101122.84;;;23.41;25.90
19150;BME280;9707;49.158;8.632;2023-05-17T13:24:03;101121.88;;;23.42;25.60
19150;BME280;9707;49.158;8.632;2023-05-17T13:26:29;101120.97;;;23.41;25.58
19150;BME280;9707;49.158;8.632;2023-05-17T13:28:54;101112.81;;;23.41;25.40